createdAt,value
2018-06-25T00:01:07.225Z,4.10
2018-06-25T00:03:35.364Z,5.13
2018-06-25T00:06:03.592Z,4.63
2018-06-25T00:08:31.935Z,5.53
2018-06-25T00:11:00.917Z,4.20
2018-06-25T00:13:29.294Z,4.37
2018-06-25T00:15:57.487Z,4.17
2018-06-25T00:18:26.480Z,5.53
2018-06-25T00:20:54.680Z,4.17
2018-06-25T00:23:22.845Z,4.63
2018-06-25T00:25:51.348Z,4.33
2018-06-25T00:28:19.507Z,5.40
2018-06-25T00:30:47.621Z,4.77
2018-06-25T00:33:15.828Z,4.93
2018-06-25T00:35:44.088Z,4.23
2018-06-25T00:38:12.290Z,3.97
2018-06-25T00:40:40.455Z,5.33
2018-06-25T00:43:08.612Z,4.17
2018-06-25T00:45:36.807Z,4.47
2018-06-25T00:48:04.951Z,4.57
2018-06-25T00:50:33.258Z,5.47
2018-06-25T00:53:01.635Z,4.53
2018-06-25T00:55:30.000Z,5.33
2018-06-25T00:57:58.978Z,7.20
2018-06-25T01:00:27.215Z,4.20
2018-06-25T01:02:55.325Z,5.20
2018-06-25T01:05:23.611Z,4.77
2018-06-25T01:07:51.822Z,4.83
2018-06-25T01:10:21.411Z,6.13
2018-06-25T01:12:49.570Z,4.10
2018-06-25T01:15:17.715Z,5.73
2018-06-25T01:17:46.129Z,6.77
2018-06-25T01:20:14.318Z,5.70
2018-06-25T01:22:43.036Z,5.43
2018-06-25T01:25:11.155Z,7.60
2018-06-25T01:27:39.343Z,7.23
2018-06-25T01:30:07.501Z,6.30
2018-06-25T01:32:36.541Z,6.37
2018-06-25T01:35:04.658Z,11.50
2018-06-25T01:37:32.863Z,7.43
2018-06-25T01:40:01.270Z,8.47
2018-06-25T01:42:29.489Z,7.03
2018-06-25T01:44:57.687Z,8.83
2018-06-25T01:47:25.911Z,8.30
2018-06-25T01:49:54.660Z,10.27
2018-06-25T01:52:22.812Z,8.93
2018-06-25T01:54:50.978Z,8.50
2018-06-25T01:57:19.600Z,8.17
2018-06-25T01:59:47.835Z,7.83
2018-06-25T02:02:16.062Z,8.47
2018-06-25T02:04:44.205Z,7.87
2018-06-25T02:07:12.350Z,8.90
2018-06-25T02:09:40.515Z,11.10
2018-06-25T02:12:08.659Z,8.07
2018-06-25T02:14:37.072Z,9.20
2018-06-25T02:17:05.237Z,10.03
2018-06-25T02:19:33.350Z,7.50
2018-06-25T02:22:01.475Z,9.07
2018-06-25T02:24:29.608Z,7.67
2018-06-25T02:26:58.260Z,8.60
2018-06-25T02:29:26.501Z,12.43
2018-06-25T02:31:54.753Z,8.23
2018-06-25T02:34:22.975Z,8.67
2018-06-25T02:36:51.398Z,7.47
2018-06-25T02:39:19.626Z,8.40
2018-06-25T02:41:47.747Z,8.13
2018-06-25T02:44:15.931Z,9.33
2018-06-25T02:46:44.811Z,8.87
2018-06-25T02:49:12.949Z,9.33
2018-06-25T02:51:41.434Z,9.63
2018-06-25T02:54:09.743Z,10.37
2018-06-25T02:56:38.750Z,10.43
2018-06-25T02:59:06.903Z,10.40
2018-06-25T03:01:35.062Z,9.97
2018-06-25T03:04:03.235Z,9.87
2018-06-25T03:06:31.391Z,7.97
2018-06-25T03:08:59.512Z,9.73
2018-06-25T03:11:27.656Z,9.53
2018-06-25T03:13:56.597Z,8.97
2018-06-25T03:16:25.018Z,10.93
2018-06-25T03:18:53.202Z,11.43
2018-06-25T03:21:21.392Z,9.90
2018-06-25T03:23:49.594Z,10.23
2018-06-25T03:26:17.747Z,11.27
2018-06-25T03:28:45.891Z,9.63
2018-06-25T03:31:14.056Z,10.83
2018-06-25T03:33:43.329Z,9.70
2018-06-25T03:36:11.421Z,9.07
2018-06-25T03:38:39.693Z,11.47
2018-06-25T03:41:07.791Z,8.97
2018-06-25T03:43:35.936Z,8.63
2018-06-25T03:46:04.145Z,12.77
2018-06-25T03:48:32.306Z,10.20
2018-06-25T03:51:00.943Z,10.13
2018-06-25T03:53:29.034Z,9.03
2018-06-25T03:55:57.152Z,10.47
2018-06-25T03:58:25.312Z,9.37
2018-06-25T04:00:53.564Z,10.53
2018-06-25T04:03:21.647Z,9.73
2018-06-25T04:05:50.476Z,10.03
2018-06-25T04:08:18.672Z,10.83
2018-06-25T04:10:46.809Z,11.60
2018-06-25T04:13:14.967Z,11.23
2018-06-25T04:15:43.947Z,10.43
2018-06-25T04:18:12.263Z,11.30
2018-06-25T04:20:40.397Z,10.03
2018-06-25T04:23:08.586Z,13.50
2018-06-25T04:25:36.877Z,11.90
2018-06-25T04:28:05.207Z,11.13
2018-06-25T04:30:33.392Z,13.13
2018-06-25T04:33:01.589Z,10.63
2018-06-25T04:35:29.833Z,10.10
2018-06-25T04:37:57.958Z,12.53
2018-06-25T04:40:26.113Z,14.53
2018-06-25T04:42:54.240Z,13.93
2018-06-25T04:45:22.552Z,12.87
2018-06-25T04:47:51.282Z,13.27
2018-06-25T04:50:19.542Z,16.73
2018-06-25T04:52:48.260Z,13.10
2018-06-25T04:55:16.360Z,13.57
2018-06-25T04:57:44.556Z,12.03
2018-06-25T05:00:12.787Z,15.60
2018-06-25T05:02:41.547Z,16.07
2018-06-25T05:05:09.804Z,13.60
2018-06-25T05:07:37.972Z,15.20
2018-06-25T05:10:06.121Z,15.20
2018-06-25T05:12:34.286Z,14.70
2018-06-25T05:15:02.487Z,14.10
2018-06-25T05:17:31.356Z,13.87
2018-06-25T05:19:59.553Z,15.17
2018-06-25T05:22:27.718Z,17.43
2018-06-25T05:24:56.818Z,15.23
2018-06-25T05:27:25.052Z,19.73
2018-06-25T05:29:53.304Z,17.03
2018-06-25T05:32:21.461Z,14.20
2018-06-25T05:34:49.747Z,16.13
2018-06-25T05:37:17.920Z,16.10
2018-06-25T05:39:46.185Z,14.77
2018-06-25T05:42:22.069Z,13.57
2018-06-25T05:44:51.934Z,11.50
2018-06-25T05:47:20.610Z,13.73
2018-06-25T05:49:48.905Z,17.60
2018-06-25T05:52:17.691Z,18.13
2018-06-25T05:54:45.860Z,15.70
2018-06-25T05:57:14.007Z,16.50
2018-06-25T05:59:42.718Z,16.97
2018-06-25T06:02:10.888Z,14.53
2018-06-25T06:04:39.023Z,15.50
2018-06-25T06:07:07.433Z,16.07
2018-06-25T06:09:35.591Z,14.27
2018-06-25T06:12:03.715Z,13.03
2018-06-25T06:14:32.689Z,10.90
2018-06-25T06:17:00.862Z,10.10
2018-06-25T06:19:29.123Z,11.20
2018-06-25T06:21:57.522Z,13.70
2018-06-25T06:24:26.416Z,11.97
2018-06-25T06:26:54.590Z,12.17
2018-06-25T06:29:23.413Z,11.53
2018-06-25T06:31:51.618Z,11.53
2018-06-25T06:34:19.780Z,10.70
2018-06-25T06:36:48.192Z,13.43
2018-06-25T06:39:20.209Z,11.37
2018-06-25T06:41:48.455Z,13.60
2018-06-25T06:44:16.687Z,14.47
2018-06-25T06:46:45.012Z,14.73
2018-06-25T06:49:14.126Z,18.37
2018-06-25T06:51:42.448Z,11.50
2018-06-25T06:54:10.654Z,11.70
2018-06-25T06:56:40.021Z,11.23
2018-06-25T06:59:08.204Z,11.47
2018-06-25T07:01:36.477Z,8.33
2018-06-25T07:04:04.643Z,9.17
2018-06-25T07:06:32.864Z,9.80
2018-06-25T07:09:01.206Z,10.83
2018-06-25T07:11:29.405Z,8.53
2018-06-25T07:13:57.648Z,10.40
2018-06-25T07:16:25.930Z,8.70
2018-06-25T07:18:54.692Z,9.27
2018-06-25T07:21:22.948Z,9.00
2018-06-25T07:23:51.599Z,8.80
2018-06-25T07:26:21.314Z,6.87
2018-06-25T07:28:49.741Z,9.03
2018-06-25T07:31:18.660Z,8.20
2018-06-25T07:33:46.973Z,9.03
2018-06-25T07:36:15.448Z,7.70
2018-06-25T07:38:44.135Z,7.73
2018-06-25T07:41:12.683Z,10.70
2018-06-25T07:43:41.098Z,8.20
2018-06-25T07:46:10.358Z,8.40
2018-06-25T07:48:40.194Z,8.10
2018-06-25T07:51:08.739Z,10.03
2018-06-25T07:53:37.034Z,12.20
2018-06-25T07:56:05.112Z,7.63
2018-06-25T07:58:33.289Z,10.30
2018-06-25T08:01:02.227Z,12.93
2018-06-25T08:03:30.379Z,8.83
2018-06-25T08:05:58.648Z,9.77
2018-06-25T08:08:27.473Z,7.93
2018-06-25T08:10:55.671Z,10.97
2018-06-25T08:13:24.608Z,8.43
2018-06-25T08:15:53.414Z,7.17
2018-06-25T08:18:22.034Z,7.67
2018-06-25T08:20:50.304Z,8.73
2018-06-25T08:23:18.500Z,9.50
2018-06-25T08:25:46.672Z,9.13
2018-06-25T08:28:15.041Z,10.03
2018-06-25T08:30:43.317Z,8.77
2018-06-25T08:33:11.509Z,9.53
2018-06-25T08:35:39.787Z,9.67
2018-06-25T08:38:08.011Z,8.57
2018-06-25T08:40:36.247Z,11.50
2018-06-25T08:43:04.401Z,7.40
2018-06-25T08:45:32.690Z,7.90
2018-06-25T08:48:00.951Z,8.33
2018-06-25T08:50:29.131Z,10.27
2018-06-25T08:52:57.292Z,7.10
2018-06-25T08:55:26.241Z,7.90
2018-06-25T08:57:54.369Z,9.10
2018-06-25T09:00:22.544Z,9.00
2018-06-25T09:02:50.732Z,8.73
2018-06-25T09:05:19.441Z,7.87
2018-06-25T09:07:48.187Z,8.00
2018-06-25T09:10:16.494Z,8.40
2018-06-25T09:12:44.729Z,7.57
2018-06-25T09:15:13.783Z,8.93
2018-06-25T09:17:41.937Z,7.43
2018-06-25T09:20:10.170Z,5.50
2018-06-25T09:22:38.476Z,6.00
2018-06-25T09:25:06.945Z,7.03
2018-06-25T09:27:40.571Z,7.97
2018-06-25T09:30:08.807Z,6.90
2018-06-25T09:32:37.136Z,7.13
2018-06-25T09:35:05.340Z,5.60
2018-06-25T09:37:33.531Z,5.67
2018-06-25T09:40:01.950Z,5.73
2018-06-25T09:42:30.684Z,5.83
2018-06-25T09:44:58.993Z,7.60
2018-06-25T09:47:27.137Z,5.33
2018-06-25T09:49:55.325Z,6.85
2018-06-25T09:52:23.501Z,4.50
2018-06-25T09:54:51.853Z,5.20
2018-06-25T09:57:22.049Z,4.78
2018-06-25T09:59:50.829Z,7.22
2018-06-25T10:02:19.091Z,5.10
2018-06-25T10:04:47.230Z,4.62
2018-06-25T10:07:16.600Z,4.42
2018-06-25T10:09:45.027Z,6.35
2018-06-25T10:12:13.295Z,4.72
2018-06-25T10:14:41.682Z,4.10
2018-06-25T10:17:09.947Z,5.25
2018-06-25T10:19:38.472Z,4.85
2018-06-25T10:22:06.901Z,5.10
2018-06-25T10:24:35.489Z,4.67
2018-06-25T10:27:03.659Z,7.43
2018-06-25T10:29:31.935Z,4.13
2018-06-25T10:32:00.117Z,3.03
2018-06-25T10:34:28.274Z,4.07
2018-06-25T10:36:56.450Z,5.43
2018-06-25T10:39:26.006Z,6.57
2018-06-25T10:41:54.274Z,3.37
2018-06-25T10:44:23.248Z,5.00
2018-06-25T10:46:51.548Z,3.97
2018-06-25T10:49:19.988Z,4.83
2018-06-25T10:51:48.281Z,5.30
2018-06-25T10:54:16.459Z,3.73
2018-06-25T10:56:44.736Z,3.67
2018-06-25T10:59:13.262Z,5.13
2018-06-25T11:01:41.379Z,4.33
2018-06-25T11:04:09.543Z,5.10
2018-06-25T11:06:38.497Z,5.10
2018-06-25T11:09:07.854Z,4.30
2018-06-25T11:11:37.299Z,6.37
2018-06-25T11:14:05.620Z,8.00
2018-06-25T11:16:34.614Z,3.80
2018-06-25T11:19:02.908Z,6.23
2018-06-25T11:21:31.078Z,7.40
2018-06-25T11:23:59.463Z,3.07
2018-06-25T11:26:27.696Z,6.10
2018-06-25T11:28:55.900Z,5.10
2018-06-25T11:31:24.138Z,4.23
2018-06-25T11:33:52.756Z,4.67
2018-06-25T11:36:21.231Z,3.72
2018-06-25T11:38:49.385Z,4.20
2018-06-25T11:41:17.538Z,5.93
2018-06-25T11:43:45.858Z,6.83
2018-06-25T11:46:13.979Z,4.77
2018-06-25T11:48:42.160Z,3.80
2018-06-25T11:51:10.794Z,3.83
2018-06-25T11:53:39.515Z,4.42
2018-06-25T11:56:09.013Z,3.23
2018-06-25T11:58:37.359Z,3.83
2018-06-25T12:01:05.717Z,4.03
2018-06-25T12:03:33.913Z,3.35
2018-06-25T12:06:03.363Z,3.90
2018-06-25T12:08:31.996Z,5.12
2018-06-25T12:11:00.276Z,3.42
2018-06-25T12:13:28.449Z,2.97
2018-06-25T12:15:56.825Z,2.97
2018-06-25T12:18:25.002Z,3.92
2018-06-25T12:20:53.159Z,3.62
2018-06-25T12:23:23.340Z,5.20
2018-06-25T12:25:51.496Z,3.25
2018-06-25T12:28:19.678Z,4.75
2018-06-25T12:30:47.831Z,3.30
2018-06-25T12:33:16.076Z,2.67
2018-06-25T12:35:44.310Z,3.17
2018-06-25T12:38:12.546Z,2.83
2018-06-25T12:40:41.965Z,3.95
2018-06-25T12:43:10.326Z,2.20
2018-06-25T12:45:39.081Z,3.30
2018-06-25T12:48:07.523Z,3.80
2018-06-25T12:50:35.900Z,2.92
2018-06-25T12:53:04.282Z,2.72
2018-06-25T12:55:33.114Z,5.17
2018-06-25T12:58:01.297Z,5.33
2018-06-25T13:00:29.484Z,3.52
2018-06-25T13:02:57.643Z,4.47
2018-06-25T13:05:25.895Z,3.65
2018-06-25T13:07:54.054Z,3.60
2018-06-25T13:10:22.204Z,2.87
2018-06-25T13:12:50.364Z,3.30
2018-06-25T13:15:18.511Z,4.07
2018-06-25T13:17:47.312Z,5.30
2018-06-25T13:20:15.701Z,3.90
2018-06-25T13:22:43.865Z,3.73
2018-06-25T13:25:12.763Z,3.73
2018-06-25T13:27:40.923Z,3.10
2018-06-25T13:30:09.075Z,4.13
2018-06-25T13:32:37.265Z,3.37
2018-06-25T13:35:06.161Z,4.93
2018-06-25T13:37:34.378Z,4.93
2018-06-25T13:40:02.829Z,5.63
2018-06-25T13:42:30.998Z,4.87
2018-06-25T13:44:59.246Z,4.30
2018-06-25T13:47:27.462Z,5.33
2018-06-25T13:49:55.619Z,3.53
2018-06-25T13:52:23.899Z,3.63
2018-06-25T13:54:52.128Z,4.53
2018-06-25T13:57:21.106Z,5.67
2018-06-25T13:59:49.228Z,2.97
2018-06-25T14:02:17.417Z,3.63
2018-06-25T14:04:45.741Z,5.27
2018-06-25T14:07:14.097Z,4.90
2018-06-25T14:09:42.270Z,4.97
2018-06-25T14:12:11.015Z,5.53
2018-06-25T14:14:39.305Z,4.10
2018-06-25T14:17:07.708Z,2.77
2018-06-25T14:19:36.123Z,3.73
2018-06-25T14:22:04.410Z,3.80
2018-06-25T14:25:09.681Z,3.57
2018-06-25T14:27:43.346Z,4.07
2018-06-25T14:30:16.987Z,3.63
2018-06-25T14:32:54.259Z,3.27
2018-06-25T14:35:22.421Z,4.33
2018-06-25T14:37:50.589Z,4.17
2018-06-25T14:40:19.339Z,4.03
2018-06-25T14:42:47.460Z,3.97
2018-06-25T14:45:15.650Z,3.93
2018-06-25T14:47:43.869Z,2.87
2018-06-25T14:50:12.018Z,4.60
2018-06-25T14:52:40.353Z,4.80
2018-06-25T14:55:08.530Z,5.50
2018-06-25T14:57:36.728Z,6.00
2018-06-25T15:00:04.897Z,5.50
2018-06-25T15:02:33.126Z,3.00
2018-06-25T15:05:01.255Z,3.23
2018-06-25T15:07:29.420Z,4.20
2018-06-25T15:09:58.483Z,3.13
2018-06-25T15:12:26.689Z,4.13
2018-06-25T15:14:55.612Z,3.93
2018-06-25T15:17:24.380Z,5.30
2018-06-25T15:19:52.647Z,3.37
2018-06-25T15:22:20.812Z,5.27
2018-06-25T15:24:49.129Z,3.03
2018-06-25T15:27:17.395Z,6.87
2018-06-25T15:29:45.615Z,7.03
2018-06-25T15:32:13.825Z,4.57
2018-06-25T15:34:42.001Z,2.70
2018-06-25T15:37:10.388Z,4.37
2018-06-25T15:39:38.758Z,4.63
2018-06-25T15:42:07.000Z,4.80
2018-06-25T15:44:35.216Z,5.57
2018-06-25T15:47:04.047Z,3.80
2018-06-25T15:49:32.252Z,3.17
2018-06-25T15:52:00.646Z,4.40
2018-06-25T15:54:28.828Z,4.67
2018-06-25T15:56:57.589Z,3.67
2018-06-25T15:59:25.772Z,3.93
2018-06-25T16:01:54.144Z,3.60
2018-06-25T16:04:22.350Z,6.10
2018-06-25T16:06:50.614Z,4.17
2018-06-25T16:09:19.398Z,4.00
2018-06-25T16:11:47.561Z,3.90
2018-06-25T16:14:15.737Z,3.23
2018-06-25T16:16:44.541Z,4.17
2018-06-25T16:19:13.048Z,5.27
2018-06-25T16:21:41.319Z,4.53
2018-06-25T16:24:09.464Z,3.07
2018-06-25T16:26:37.715Z,4.77
2018-06-25T16:29:06.022Z,4.67
2018-06-25T16:31:36.738Z,4.43
2018-06-25T16:34:05.880Z,4.40
2018-06-25T16:36:34.553Z,4.80
2018-06-25T16:39:02.864Z,4.33
2018-06-25T16:41:31.034Z,4.67
2018-06-25T16:43:59.993Z,3.53
2018-06-25T16:46:28.259Z,3.37
2018-06-25T16:48:56.492Z,5.17
2018-06-25T16:51:24.918Z,4.10
2018-06-25T16:53:53.028Z,4.65
2018-06-25T16:56:21.219Z,4.80
2018-06-25T16:58:49.455Z,2.58
2018-06-25T17:01:17.814Z,4.30
2018-06-25T17:03:46.066Z,4.60
2018-06-25T17:06:14.252Z,4.47
2018-06-25T17:08:42.427Z,4.72
2018-06-25T17:11:10.747Z,3.55
2018-06-25T17:13:39.466Z,4.67
2018-06-25T17:16:07.641Z,4.37
2018-06-25T17:18:36.542Z,4.05
2018-06-25T17:21:05.452Z,4.30
2018-06-25T17:23:34.626Z,6.20
2018-06-25T17:26:03.865Z,4.28
2018-06-25T17:28:32.026Z,5.25
2018-06-25T17:31:00.896Z,4.95
2018-06-25T17:33:29.092Z,3.87
2018-06-25T17:35:57.221Z,4.35
2018-06-25T17:38:25.535Z,4.08
2018-06-25T17:40:53.818Z,5.62
2018-06-25T17:43:23.407Z,5.25
2018-06-25T17:45:51.664Z,3.05
2018-06-25T17:48:20.007Z,6.08
2018-06-25T17:50:48.258Z,3.25
2018-06-25T17:53:16.411Z,3.15
2018-06-25T17:55:44.668Z,4.80
2018-06-25T17:58:12.878Z,5.03
2018-06-25T18:00:41.017Z,3.27
2018-06-25T18:03:09.207Z,4.50
2018-06-25T18:05:37.347Z,3.72
2018-06-25T18:08:05.795Z,3.47
2018-06-25T18:10:34.069Z,3.17
2018-06-25T18:13:02.270Z,3.47
2018-06-25T18:15:30.535Z,5.30
2018-06-25T18:17:58.753Z,3.65
2018-06-25T18:20:26.930Z,3.35
2018-06-25T18:22:56.048Z,4.83
2018-06-25T18:25:24.427Z,3.30
2018-06-25T18:27:52.555Z,5.00
2018-06-25T18:30:21.667Z,5.20
2018-06-25T18:32:49.857Z,4.53
2018-06-25T18:35:18.134Z,4.42
2018-06-25T18:37:46.330Z,5.62
2018-06-25T18:40:14.589Z,5.45
2018-06-25T18:42:42.761Z,4.97
2018-06-25T18:45:11.003Z,3.30
2018-06-25T18:47:39.216Z,4.25
2018-06-25T18:50:07.917Z,3.25
2018-06-25T18:52:36.092Z,3.97
2018-06-25T18:55:05.026Z,4.83
2018-06-25T18:57:33.252Z,4.77
2018-06-25T19:00:01.513Z,7.60
2018-06-25T19:02:30.020Z,6.93
2018-06-25T19:04:58.486Z,7.93
2018-06-25T19:07:26.672Z,6.80
2018-06-25T19:09:54.818Z,4.23
2018-06-25T19:12:23.145Z,7.93
2018-06-25T19:14:51.960Z,5.70
2018-06-25T19:17:20.442Z,5.03
2018-06-25T19:19:48.751Z,4.53
2018-06-25T19:22:17.666Z,6.60
2018-06-25T19:24:45.961Z,6.67
2018-06-25T19:27:14.170Z,5.80
2018-06-25T19:29:42.478Z,6.13
2018-06-25T19:32:10.953Z,6.80
2018-06-25T19:34:39.662Z,6.30
2018-06-25T19:37:07.820Z,6.90
2018-06-25T19:39:36.094Z,4.63
2018-06-25T19:42:04.446Z,6.93
2018-06-25T19:44:32.646Z,7.50
2018-06-25T19:47:00.989Z,7.47
2018-06-25T19:49:29.164Z,7.73
2018-06-25T19:51:57.370Z,6.50
2018-06-25T19:54:25.555Z,8.47
2018-06-25T19:56:55.103Z,5.73
2018-06-25T19:59:23.400Z,10.20
2018-06-25T20:01:52.142Z,6.73
2018-06-25T20:04:20.360Z,9.53
2018-06-25T20:06:48.516Z,8.57
2018-06-25T20:09:16.804Z,10.53
2018-06-25T20:11:45.576Z,7.27
2018-06-25T20:14:14.405Z,7.73
2018-06-25T20:16:43.387Z,8.07
2018-06-25T20:19:11.548Z,7.07
2018-06-25T20:21:40.780Z,9.40
2018-06-25T20:24:09.029Z,9.03
2018-06-25T20:26:37.239Z,8.83
2018-06-25T20:29:05.610Z,8.70
2018-06-25T20:31:34.336Z,8.20
2018-06-25T20:34:03.224Z,9.00
2018-06-25T20:36:31.538Z,8.07
2018-06-25T20:38:59.816Z,9.47
2018-06-25T20:41:28.205Z,7.23
2018-06-25T20:43:56.513Z,10.80
2018-06-25T20:46:24.738Z,8.63
2018-06-25T20:48:53.010Z,8.30
2018-06-25T20:51:21.720Z,10.03
2018-06-25T20:53:49.906Z,9.70
2018-06-25T20:56:18.877Z,7.83
2018-06-25T20:58:47.288Z,8.77
2018-06-25T21:01:15.445Z,6.47
2018-06-25T21:03:44.822Z,9.30
2018-06-25T21:06:13.037Z,11.50
2018-06-25T21:08:41.238Z,7.33
2018-06-25T21:11:09.453Z,8.73
2018-06-25T21:13:37.822Z,7.40
2018-06-25T21:16:06.123Z,10.57
2018-06-25T21:18:34.259Z,7.03
2018-06-25T21:21:02.479Z,7.47
2018-06-25T21:23:30.637Z,7.30
2018-06-25T21:25:58.788Z,7.47
2018-06-25T21:28:26.989Z,7.67
2018-06-25T21:30:55.173Z,6.67
2018-06-25T21:33:23.338Z,8.93
2018-06-25T21:35:52.155Z,11.23
2018-06-25T21:38:20.528Z,9.10
2018-06-25T21:40:48.697Z,9.37
2018-06-25T21:43:16.950Z,6.53
2018-06-25T21:45:45.906Z,10.33
2018-06-25T21:48:14.242Z,9.87
2018-06-25T21:50:42.397Z,7.70
2018-06-25T21:53:11.184Z,6.67
2018-06-25T21:55:39.383Z,10.80
2018-06-25T21:58:08.224Z,8.13
2018-06-25T22:00:41.909Z,10.83
2018-06-25T22:03:10.055Z,6.97
2018-06-25T22:05:38.445Z,7.20
2018-06-25T22:08:06.567Z,10.97
2018-06-25T22:10:34.760Z,9.70
2018-06-25T22:13:02.885Z,8.23
2018-06-25T22:15:31.117Z,7.03
2018-06-25T22:17:59.248Z,10.60
2018-06-25T22:20:27.983Z,8.93
2018-06-25T22:22:56.130Z,7.17
2018-06-25T22:25:24.326Z,8.73
2018-06-25T22:27:52.557Z,7.73
2018-06-25T22:30:20.835Z,7.17
2018-06-25T22:32:49.166Z,8.27
2018-06-25T22:35:17.293Z,9.13
2018-06-25T22:37:45.592Z,10.90
2018-06-25T22:40:13.837Z,7.50
2018-06-25T22:42:43.572Z,7.77
2018-06-25T22:45:12.000Z,10.80
2018-06-25T22:47:40.200Z,10.30
2018-06-25T22:50:08.394Z,8.60
2018-06-25T22:52:36.543Z,7.30
2018-06-25T22:55:04.716Z,8.13
2018-06-25T22:57:32.855Z,7.87
2018-06-25T23:00:01.185Z,9.07
2018-06-25T23:02:29.286Z,9.67
2018-06-25T23:04:57.532Z,10.97
2018-06-25T23:07:25.704Z,10.83
2018-06-25T23:09:53.961Z,9.83
2018-06-25T23:12:22.250Z,9.37
2018-06-25T23:14:50.531Z,11.57
2018-06-25T23:17:18.687Z,9.97
2018-06-25T23:19:47.114Z,9.00
2018-06-25T23:22:15.342Z,9.90
2018-06-25T23:24:43.624Z,8.33
2018-06-25T23:27:11.995Z,9.93
2018-06-25T23:29:40.156Z,8.27
2018-06-25T23:32:08.322Z,8.87
2018-06-25T23:34:36.498Z,11.00
2018-06-25T23:37:04.703Z,9.20
2018-06-25T23:39:32.839Z,7.60
2018-06-25T23:42:01.334Z,9.77
2018-06-25T23:44:29.523Z,8.03
2018-06-25T23:46:57.693Z,9.60
2018-06-25T23:49:25.878Z,8.63
2018-06-25T23:51:54.759Z,9.93
2018-06-25T23:54:23.040Z,9.27
2018-06-25T23:56:51.158Z,8.60
2018-06-25T23:59:19.314Z,10.17
